Estación Meteorológica Peña el Pijo (Robertgarden) [ 02/03/23 04:24:01 CET ]

Fecha Hora Presion(HPa) Temp (°C) Humedad % Rocio (°C) Viento ( m/s) Direccion Lluvia 1Hora(mm) Lluvia 24H(mm) LLuvia Total(mm)
2010-Nov-04 01:01:12 1019.400 4.4 84 1.9         0.00
2010-Nov-04 02:04:23 1019.300 4.1 84 1.6         0.00
2010-Nov-04 03:01:13 1019.600 3.6 85 1.3         0.00
2010-Nov-04 04:01:14 1019.600 3.1 85 0.8         0.00
2010-Nov-04 05:01:17 1019.700 2.8 86 0.7         0.00
2010-Nov-04 06:01:12 1019.900 2.2 87 0.2         0.00
2010-Nov-04 07:01:12 1020.000 2.1 88 0.3         0.00
2010-Nov-04 08:01:12 1020.700 1.8 89 0.1         0.00
2010-Nov-04 09:01:15 1021.200 4.4 92 3.2         0.00
2010-Nov-04 10:01:12 1021.300 10.4 79 6.9         0.00
2010-Nov-04 11:01:16 1021.200 15.6 57 7.1         0.00
2010-Nov-04 12:01:11 1020.600 21.1 42 7.7         0.00
2010-Nov-04 13:01:13 1020.000 23.4 33 6.1         0.00
2010-Nov-04 14:01:17 1019.700 24.3 31 6.1         0.00
2010-Nov-04 15:01:11 1019.600 22.8 33 5.6         0.00
2010-Nov-04 16:01:16 1019.500 22.2 37 6.7         0.00
2010-Nov-04 17:01:19 1019.700 17.6 47 6.1         0.00
2010-Nov-04 18:01:12 1020.400 14.9 54 5.7         0.00
2010-Nov-04 19:01:13 1020.600 11.1 62 4.0         0.00
2010-Nov-04 20:01:14 1021.200 8.1 74 3.8         0.00
2010-Nov-04 21:01:16 1021.200 6.6 78 3.0         0.00
2010-Nov-04 22:01:16 1021.400 5.9 81 2.9         0.00
2010-Nov-04 23:01:17 1021.300 5.0 83 2.3         0.00

Temperatura Máxima:24°    Temperatura Mínima:
Presión Máxima:1021.400 Hpa    Presión Mínima:1019.300 Hpa


Volver